Airfield :
LOGIN :

Register | Disclaimer

   EN    FR    IT 

 










Legend :    VFR   Marginal VFR   IFR   Intensive IFR   Very Intensive IFR
Visi :
Ceiling :
>= 8 km
>= 3000ft
5 to 8 km
1000 to 3000 ft
1500m to 5 km
500 to 1000 ft
800 to 1500m
200 to 500 ft
< 800m
< 200 ft
Symbols :   Thunderstorms  Fog  Heavy snow  Heavy precipitations  Wind > 20 kt
SIGMETs :     Misc.  Thunderstorms  Icing  Turbulence  Mountain Waves  Volcanic Ashes







- Airport Elevation : 3 ft
- IATA code : LWR


EHLW - Leuuwarden Air Base

CURRENT METAR :
  • 210034Z AUTO 30008KT 260V320 9999 FEW022 SCT025 BKN029 02/00 Q1004 BLU

EXPIRED METARs :
  • 210025Z AUTO 29005KT 9999 FEW020 SCT024 BKN027 01/M00 Q1004 WHT
  • 210012Z AUTO 27003KT 9999 SCT022 00/M01 Q1004 WHT
  • 210003Z AUTO 28004KT 9999 FEW022 00/M01 Q1003 BLU
  • 202355Z AUTO 28005KT 9999 SCT024 SCT033 01/M00 Q1003 WHT
  • 202348Z AUTO 28004KT 9999 SCT024 SCT033 00/M01 Q1003 WHT
  • 202333Z AUTO 25005KT 220V280 9999 FEW023 SCT110 M00/M01 Q1003 BLU
  • 202313Z AUTO 23005KT 9999 NCD M00/M01 Q1003 BLU
  • 202300Z AUTO 23005KT 9999 FEW024 SCT029 M00/M01 Q1003 BLU
  • 202259Z AUTO 23005KT 9999 SCT024 BKN028 BKN032 M00/M01 Q1003 WHT
  • 202255Z AUTO 22005KT 9999 FEW025 SCT029 M00/M01 Q1002 BLU
  • 202237Z AUTO 21005KT 6000 BR NCD M00/M01 Q1002 WHT
  • 202228Z AUTO 20005KT 3800 BR NCD M00/M01 Q1002 GRN
  • 202225Z AUTO 20003KT 2900 R23/2900N BR NCD 00/M00 Q1002 YLO
  • 202208Z AUTO 27001KT 3000 R23/P3000U BR NCD 01/00 Q1002 YLO
  • 202156Z AUTO 27001KT 5000 BR FEW015CB SCT110 01/01 Q1002 WHT
  • 202155Z AUTO 00000KT 3700 BR FEW015CB SCT060 BKN110 01/01 Q1002 GRN
  • 202139Z AUTO VRB01KT 5000 BR FEW015CB BKN100 01/01 Q1002 WHT

Expired Forecast.
No reported NOTAMs for that airfield.
2 SIGMETs reported for the Amsterdam FIR (EHAA) :
 
Severe turbulence
EHAA SIGMET 2 VALID 202230/202400 EHDB
EHAA AMSTERDAM FIR SEV TURB FCST WI N5415 E00418 - N5155 E00644 - N5121 E00424 - N5254 E00312 - N5415 E00418 FL180/330 MOV ESE 30KT NC=
Severe turbulence
EHAA SIGMET 1 VALID 210000/210300 EHDB
EHAA AMSTERDAM FIR SEV TURB FCST WI N5430 E00431 - N5158 E00650 - N5258 E00712 - N5500 E00520 - N5500 E00459 - N5430 E00431 FL180/330 MOV NE 30KT NC=



MET'MAP, your aeronautical weather chart ! - Copyright ORBIFLY December 2007 - Disclaimer

ORBIFLY MET'MAP TEAM :

Programming & Development : Alexandra Zaïnal
Concept & Development : Baudouin d'Aumeries
Co-Development & Prog : Marc-Olivier Méhu
Technical & hardware support : Manuel Goepfert

Contact : metmap@orbifly.com




SOURCES & CREDITS :

   NOAA